sensor_id;sensor_type;location;lat;lon;timestamp;P1;durP1;ratioP1;P2;durP2;ratioP2
6497;SDS011;3282;48.358;10.958;2022-11-15T00:00:59;21.75;;;14.18;;
6497;SDS011;3282;48.358;10.958;2022-11-15T00:03:44;23.55;;;16.23;;
6497;SDS011;3282;48.358;10.958;2022-11-15T00:06:30;21.05;;;14.57;;
6497;SDS011;3282;48.358;10.958;2022-11-15T00:09:15;18.90;;;13.02;;
6497;SDS011;3282;48.358;10.958;2022-11-15T00:12:01;18.40;;;12.88;;
6497;SDS011;3282;48.358;10.958;2022-11-15T00:14:46;18.70;;;12.57;;
6497;SDS011;3282;48.358;10.958;2022-11-15T00:17:31;19.17;;;12.68;;
6497;SDS011;3282;48.358;10.958;2022-11-15T00:20:16;20.73;;;14.40;;
6497;SDS011;3282;48.358;10.958;2022-11-15T00:23:05;17.85;;;12.45;;
6497;SDS011;3282;48.358;10.958;2022-11-15T00:25:57;18.48;;;13.05;;
6497;SDS011;3282;48.358;10.958;2022-11-15T00:28:43;19.20;;;13.25;;
6497;SDS011;3282;48.358;10.958;2022-11-15T00:31:28;21.02;;;13.98;;
6497;SDS011;3282;48.358;10.958;2022-11-15T00:34:13;19.13;;;13.02;;
6497;SDS011;3282;48.358;10.958;2022-11-15T00:36:58;20.10;;;13.95;;
6497;SDS011;3282;48.358;10.958;2022-11-15T00:39:43;20.02;;;13.48;;
6497;SDS011;3282;48.358;10.958;2022-11-15T00:42:28;20.40;;;13.80;;
6497;SDS011;3282;48.358;10.958;2022-11-15T00:45:13;21.77;;;14.02;;
6497;SDS011;3282;48.358;10.958;2022-11-15T00:47:59;18.73;;;12.77;;
6497;SDS011;3282;48.358;10.958;2022-11-15T00:50:43;18.60;;;12.18;;
6497;SDS011;3282;48.358;10.958;2022-11-15T00:53:28;19.10;;;11.95;;
6497;SDS011;3282;48.358;10.958;2022-11-15T00:56:14;20.23;;;12.55;;
6497;SDS011;3282;48.358;10.958;2022-11-15T00:58:59;17.13;;;12.10;;
6497;SDS011;3282;48.358;10.958;2022-11-15T01:01:44;17.55;;;12.23;;
6497;SDS011;3282;48.358;10.958;2022-11-15T01:04:29;16.33;;;11.35;;
6497;SDS011;3282;48.358;10.958;2022-11-15T01:07:14;15.68;;;10.77;;
6497;SDS011;3282;48.358;10.958;2022-11-15T01:09:59;16.90;;;11.63;;
6497;SDS011;3282;48.358;10.958;2022-11-15T01:12:44;17.05;;;12.13;;
6497;SDS011;3282;48.358;10.958;2022-11-15T01:15:29;16.38;;;11.73;;
6497;SDS011;3282;48.358;10.958;2022-11-15T01:18:14;18.63;;;12.40;;
6497;SDS011;3282;48.358;10.958;2022-11-15T01:21:03;16.73;;;12.50;;
6497;SDS011;3282;48.358;10.958;2022-11-15T01:23:52;15.45;;;11.02;;
6497;SDS011;3282;48.358;10.958;2022-11-15T01:26:38;21.52;;;13.60;;
6497;SDS011;3282;48.358;10.958;2022-11-15T01:29:23;17.55;;;11.82;;
6497;SDS011;3282;48.358;10.958;2022-11-15T01:32:08;16.00;;;11.32;;
6497;SDS011;3282;48.358;10.958;2022-11-15T01:34:54;16.17;;;11.60;;
6497;SDS011;3282;48.358;10.958;2022-11-15T01:37:38;16.65;;;12.27;;
6497;SDS011;3282;48.358;10.958;2022-11-15T01:40:23;16.95;;;11.07;;
6497;SDS011;3282;48.358;10.958;2022-11-15T01:43:18;16.77;;;11.55;;
6497;SDS011;3282;48.358;10.958;2022-11-15T01:46:24;16.63;;;10.95;;
6497;SDS011;3282;48.358;10.958;2022-11-15T01:49:14;16.52;;;9.75;;
6497;SDS011;3282;48.358;10.958;2022-11-15T01:52:04;17.05;;;11.63;;
6497;SDS011;3282;48.358;10.958;2022-11-15T01:55:14;14.00;;;10.10;;
6497;SDS011;3282;48.358;10.958;2022-11-15T01:58:05;18.05;;;11.20;;
6497;SDS011;3282;48.358;10.958;2022-11-15T02:00:51;13.15;;;9.70;;
6497;SDS011;3282;48.358;10.958;2022-11-15T02:03:42;15.20;;;10.90;;
6497;SDS011;3282;48.358;10.958;2022-11-15T02:06:34;15.85;;;11.25;;
6497;SDS011;3282;48.358;10.958;2022-11-15T02:09:20;17.65;;;11.07;;
6497;SDS011;3282;48.358;10.958;2022-11-15T02:12:05;16.92;;;11.15;;
6497;SDS011;3282;48.358;10.958;2022-11-15T02:14:53;19.15;;;12.35;;
6497;SDS011;3282;48.358;10.958;2022-11-15T02:21:05;15.52;;;10.40;;
6497;SDS011;3282;48.358;10.958;2022-11-15T02:24:05;16.10;;;10.68;;
6497;SDS011;3282;48.358;10.958;2022-11-15T02:27:06;17.17;;;11.02;;
6497;SDS011;3282;48.358;10.958;2022-11-15T02:36:41;18.98;;;11.13;;
6497;SDS011;3282;48.358;10.958;2022-11-15T02:39:49;18.80;;;11.77;;
6497;SDS011;3282;48.358;10.958;2022-11-15T02:42:53;14.77;;;10.18;;
6497;SDS011;3282;48.358;10.958;2022-11-15T02:46:08;13.43;;;9.32;;
6497;SDS011;3282;48.358;10.958;2022-11-15T02:48:59;15.00;;;9.27;;
6497;SDS011;3282;48.358;10.958;2022-11-15T02:51:45;15.23;;;9.75;;
6497;SDS011;3282;48.358;10.958;2022-11-15T02:54:33;16.13;;;9.95;;
6497;SDS011;3282;48.358;10.958;2022-11-15T02:57:19;14.85;;;9.98;;
6497;SDS011;3282;48.358;10.958;2022-11-15T03:00:16;15.32;;;10.00;;
6497;SDS011;3282;48.358;10.958;2022-11-15T03:03:14;16.88;;;10.20;;
6497;SDS011;3282;48.358;10.958;2022-11-15T03:09:35;17.73;;;10.70;;
6497;SDS011;3282;48.358;10.958;2022-11-15T03:12:28;15.32;;;9.27;;
6497;SDS011;3282;48.358;10.958;2022-11-15T03:15:27;21.23;;;13.35;;
6497;SDS011;3282;48.358;10.958;2022-11-15T03:18:19;17.42;;;11.57;;
6497;SDS011;3282;48.358;10.958;2022-11-15T03:21:14;18.80;;;12.65;;
6497;SDS011;3282;48.358;10.958;2022-11-15T03:24:01;16.70;;;10.95;;
6497;SDS011;3282;48.358;10.958;2022-11-15T03:26:49;18.67;;;11.40;;
6497;SDS011;3282;48.358;10.958;2022-11-15T03:29:38;19.02;;;12.38;;
6497;SDS011;3282;48.358;10.958;2022-11-15T03:32:28;17.70;;;10.68;;
6497;SDS011;3282;48.358;10.958;2022-11-15T03:35:20;17.70;;;11.07;;
6497;SDS011;3282;48.358;10.958;2022-11-15T03:40:58;19.70;;;11.73;;
6497;SDS011;3282;48.358;10.958;2022-11-15T03:43:52;19.30;;;11.68;;
6497;SDS011;3282;48.358;10.958;2022-11-15T03:46:51;19.08;;;11.88;;
6497;SDS011;3282;48.358;10.958;2022-11-15T03:49:46;15.48;;;10.02;;
6497;SDS011;3282;48.358;10.958;2022-11-15T03:52:36;14.77;;;10.18;;
6497;SDS011;3282;48.358;10.958;2022-11-15T03:55:21;15.45;;;10.10;;
6497;SDS011;3282;48.358;10.958;2022-11-15T03:58:07;14.30;;;9.27;;
6497;SDS011;3282;48.358;10.958;2022-11-15T04:00:52;15.20;;;10.02;;
6497;SDS011;3282;48.358;10.958;2022-11-15T04:03:37;18.13;;;11.48;;
6497;SDS011;3282;48.358;10.958;2022-11-15T04:06:22;23.48;;;12.75;;
6497;SDS011;3282;48.358;10.958;2022-11-15T04:09:07;15.65;;;9.48;;
6497;SDS011;3282;48.358;10.958;2022-11-15T04:11:53;14.13;;;10.02;;
6497;SDS011;3282;48.358;10.958;2022-11-15T04:14:38;14.02;;;9.65;;
6497;SDS011;3282;48.358;10.958;2022-11-15T04:17:47;15.55;;;9.80;;
6497;SDS011;3282;48.358;10.958;2022-11-15T04:20:33;15.65;;;10.65;;
6497;SDS011;3282;48.358;10.958;2022-11-15T04:23:37;13.65;;;9.20;;
6497;SDS011;3282;48.358;10.958;2022-11-15T04:26:37;16.67;;;10.20;;
6497;SDS011;3282;48.358;10.958;2022-11-15T04:29:23;13.73;;;9.27;;
6497;SDS011;3282;48.358;10.958;2022-11-15T04:32:20;14.77;;;10.43;;
6497;SDS011;3282;48.358;10.958;2022-11-15T04:35:05;14.93;;;9.55;;
6497;SDS011;3282;48.358;10.958;2022-11-15T04:37:50;14.20;;;9.57;;
6497;SDS011;3282;48.358;10.958;2022-11-15T04:40:35;14.93;;;10.55;;
6497;SDS011;3282;48.358;10.958;2022-11-15T04:43:22;15.50;;;10.13;;
6497;SDS011;3282;48.358;10.958;2022-11-15T04:46:07;13.70;;;9.40;;
6497;SDS011;3282;48.358;10.958;2022-11-15T04:48:52;14.57;;;9.32;;
6497;SDS011;3282;48.358;10.958;2022-11-15T04:51:43;15.00;;;9.55;;
6497;SDS011;3282;48.358;10.958;2022-11-15T04:54:29;14.80;;;9.68;;
6497;SDS011;3282;48.358;10.958;2022-11-15T04:57:14;13.48;;;9.20;;
6497;SDS011;3282;48.358;10.958;2022-11-15T05:00:00;14.02;;;9.38;;
6497;SDS011;3282;48.358;10.958;2022-11-15T05:02:45;13.65;;;9.60;;
6497;SDS011;3282;48.358;10.958;2022-11-15T05:05:49;16.05;;;10.05;;
6497;SDS011;3282;48.358;10.958;2022-11-15T05:08:34;15.07;;;10.27;;
6497;SDS011;3282;48.358;10.958;2022-11-15T05:11:19;15.40;;;10.55;;
6497;SDS011;3282;48.358;10.958;2022-11-15T05:14:05;14.52;;;9.73;;
6497;SDS011;3282;48.358;10.958;2022-11-15T05:16:50;14.50;;;9.70;;
6497;SDS011;3282;48.358;10.958;2022-11-15T05:19:35;16.90;;;11.35;;
6497;SDS011;3282;48.358;10.958;2022-11-15T05:22:20;15.27;;;9.93;;
6497;SDS011;3282;48.358;10.958;2022-11-15T05:25:06;16.50;;;10.25;;
6497;SDS011;3282;48.358;10.958;2022-11-15T05:27:51;19.77;;;11.35;;
6497;SDS011;3282;48.358;10.958;2022-11-15T05:30:36;15.65;;;10.60;;
6497;SDS011;3282;48.358;10.958;2022-11-15T05:33:21;15.07;;;10.13;;
6497;SDS011;3282;48.358;10.958;2022-11-15T05:36:29;15.93;;;9.93;;
6497;SDS011;3282;48.358;10.958;2022-11-15T05:39:17;16.80;;;10.00;;
6497;SDS011;3282;48.358;10.958;2022-11-15T05:42:05;16.40;;;11.20;;
6497;SDS011;3282;48.358;10.958;2022-11-15T05:44:54;14.88;;;10.55;;
6497;SDS011;3282;48.358;10.958;2022-11-15T05:47:39;16.17;;;10.32;;
6497;SDS011;3282;48.358;10.958;2022-11-15T05:50:25;20.00;;;13.50;;
6497;SDS011;3282;48.358;10.958;2022-11-15T05:53:11;24.02;;;15.95;;
6497;SDS011;3282;48.358;10.958;2022-11-15T05:55:59;21.55;;;14.38;;
6497;SDS011;3282;48.358;10.958;2022-11-15T05:58:44;22.48;;;14.02;;
6497;SDS011;3282;48.358;10.958;2022-11-15T06:01:29;21.15;;;13.18;;
6497;SDS011;3282;48.358;10.958;2022-11-15T06:04:15;19.60;;;12.75;;
6497;SDS011;3282;48.358;10.958;2022-11-15T06:07:00;18.88;;;11.93;;
6497;SDS011;3282;48.358;10.958;2022-11-15T06:09:45;21.02;;;14.25;;
6497;SDS011;3282;48.358;10.958;2022-11-15T06:12:30;23.75;;;14.00;;
6497;SDS011;3282;48.358;10.958;2022-11-15T06:15:15;25.02;;;15.52;;
6497;SDS011;3282;48.358;10.958;2022-11-15T06:18:00;17.65;;;11.40;;
6497;SDS011;3282;48.358;10.958;2022-11-15T06:20:45;14.95;;;10.38;;
6497;SDS011;3282;48.358;10.958;2022-11-15T06:23:33;17.77;;;11.05;;
6497;SDS011;3282;48.358;10.958;2022-11-15T06:26:19;15.48;;;10.23;;
6497;SDS011;3282;48.358;10.958;2022-11-15T06:29:05;17.77;;;10.82;;
6497;SDS011;3282;48.358;10.958;2022-11-15T06:31:50;17.67;;;12.27;;
6497;SDS011;3282;48.358;10.958;2022-11-15T06:34:35;18.08;;;10.30;;
6497;SDS011;3282;48.358;10.958;2022-11-15T06:37:20;19.05;;;11.93;;
6497;SDS011;3282;48.358;10.958;2022-11-15T06:40:06;16.40;;;10.88;;
6497;SDS011;3282;48.358;10.958;2022-11-15T06:42:57;18.10;;;11.90;;
6497;SDS011;3282;48.358;10.958;2022-11-15T06:45:43;20.15;;;12.95;;
6497;SDS011;3282;48.358;10.958;2022-11-15T06:48:28;18.65;;;12.40;;
6497;SDS011;3282;48.358;10.958;2022-11-15T06:51:14;22.98;;;13.57;;
6497;SDS011;3282;48.358;10.958;2022-11-15T06:53:58;19.05;;;12.75;;
6497;SDS011;3282;48.358;10.958;2022-11-15T06:56:44;21.73;;;13.82;;
6497;SDS011;3282;48.358;10.958;2022-11-15T06:59:29;23.15;;;13.98;;
6497;SDS011;3282;48.358;10.958;2022-11-15T07:02:14;24.60;;;14.75;;
6497;SDS011;3282;48.358;10.958;2022-11-15T07:04:59;23.40;;;14.57;;
6497;SDS011;3282;48.358;10.958;2022-11-15T07:07:50;25.95;;;16.98;;
6497;SDS011;3282;48.358;10.958;2022-11-15T07:10:36;25.65;;;17.23;;
6497;SDS011;3282;48.358;10.958;2022-11-15T07:13:23;24.88;;;15.32;;
6497;SDS011;3282;48.358;10.958;2022-11-15T07:16:09;24.42;;;15.38;;
6497;SDS011;3282;48.358;10.958;2022-11-15T07:18:55;22.27;;;15.25;;
6497;SDS011;3282;48.358;10.958;2022-11-15T07:21:40;22.85;;;14.80;;
6497;SDS011;3282;48.358;10.958;2022-11-15T07:24:25;22.23;;;14.23;;
6497;SDS011;3282;48.358;10.958;2022-11-15T07:27:10;25.23;;;14.18;;
6497;SDS011;3282;48.358;10.958;2022-11-15T07:29:56;20.20;;;12.80;;
6497;SDS011;3282;48.358;10.958;2022-11-15T07:32:41;33.28;;;19.73;;
6497;SDS011;3282;48.358;10.958;2022-11-15T07:35:26;27.85;;;18.80;;
6497;SDS011;3282;48.358;10.958;2022-11-15T07:38:12;22.35;;;14.45;;
6497;SDS011;3282;48.358;10.958;2022-11-15T07:41:00;25.77;;;15.02;;
6497;SDS011;3282;48.358;10.958;2022-11-15T07:43:50;23.63;;;15.25;;
6497;SDS011;3282;48.358;10.958;2022-11-15T07:46:36;19.88;;;13.13;;
6497;SDS011;3282;48.358;10.958;2022-11-15T07:49:21;20.20;;;12.30;;
6497;SDS011;3282;48.358;10.958;2022-11-15T07:52:06;18.38;;;11.75;;
6497;SDS011;3282;48.358;10.958;2022-11-15T07:54:51;21.08;;;12.63;;
6497;SDS011;3282;48.358;10.958;2022-11-15T07:57:36;22.40;;;13.48;;
6497;SDS011;3282;48.358;10.958;2022-11-15T08:00:21;21.52;;;13.45;;
6497;SDS011;3282;48.358;10.958;2022-11-15T08:03:08;23.27;;;14.90;;
6497;SDS011;3282;48.358;10.958;2022-11-15T08:05:54;20.77;;;14.07;;
6497;SDS011;3282;48.358;10.958;2022-11-15T08:08:39;22.55;;;15.05;;
6497;SDS011;3282;48.358;10.958;2022-11-15T08:11:24;20.20;;;14.02;;
6497;SDS011;3282;48.358;10.958;2022-11-15T08:14:10;21.83;;;14.40;;
6497;SDS011;3282;48.358;10.958;2022-11-15T08:16:55;21.20;;;12.85;;
6497;SDS011;3282;48.358;10.958;2022-11-15T08:19:40;18.13;;;12.93;;
6497;SDS011;3282;48.358;10.958;2022-11-15T08:22:25;18.45;;;12.20;;
6497;SDS011;3282;48.358;10.958;2022-11-15T08:25:10;19.27;;;13.10;;
6497;SDS011;3282;48.358;10.958;2022-11-15T08:27:56;19.52;;;12.88;;
6497;SDS011;3282;48.358;10.958;2022-11-15T08:30:43;20.42;;;12.45;;
6497;SDS011;3282;48.358;10.958;2022-11-15T08:33:30;16.20;;;10.88;;
6497;SDS011;3282;48.358;10.958;2022-11-15T08:36:16;17.40;;;10.55;;
6497;SDS011;3282;48.358;10.958;2022-11-15T08:39:02;14.75;;;10.20;;
6497;SDS011;3282;48.358;10.958;2022-11-15T08:41:47;18.85;;;10.32;;
6497;SDS011;3282;48.358;10.958;2022-11-15T08:44:32;13.90;;;10.00;;
6497;SDS011;3282;48.358;10.958;2022-11-15T08:47:17;16.00;;;11.20;;
6497;SDS011;3282;48.358;10.958;2022-11-15T08:50:02;17.75;;;11.50;;
6497;SDS011;3282;48.358;10.958;2022-11-15T08:52:48;17.48;;;11.05;;
6497;SDS011;3282;48.358;10.958;2022-11-15T08:55:35;13.35;;;8.57;;
6497;SDS011;3282;48.358;10.958;2022-11-15T08:58:21;14.95;;;8.15;;
6497;SDS011;3282;48.358;10.958;2022-11-15T09:01:13;13.52;;;8.43;;
6497;SDS011;3282;48.358;10.958;2022-11-15T09:04:02;16.35;;;9.32;;
6497;SDS011;3282;48.358;10.958;2022-11-15T09:06:48;12.50;;;8.43;;
6497;SDS011;3282;48.358;10.958;2022-11-15T09:09:34;12.52;;;8.18;;
6497;SDS011;3282;48.358;10.958;2022-11-15T09:12:18;12.15;;;8.55;;
6497;SDS011;3282;48.358;10.958;2022-11-15T09:15:04;14.00;;;8.13;;
6497;SDS011;3282;48.358;10.958;2022-11-15T09:17:50;11.18;;;7.75;;
6497;SDS011;3282;48.358;10.958;2022-11-15T09:20:35;12.20;;;8.10;;
6497;SDS011;3282;48.358;10.958;2022-11-15T09:23:20;11.52;;;7.07;;
6497;SDS011;3282;48.358;10.958;2022-11-15T09:26:05;10.95;;;7.53;;
6497;SDS011;3282;48.358;10.958;2022-11-15T09:28:51;15.18;;;8.07;;
6497;SDS011;3282;48.358;10.958;2022-11-15T09:31:36;12.65;;;8.13;;
6497;SDS011;3282;48.358;10.958;2022-11-15T09:34:21;13.13;;;7.63;;
6497;SDS011;3282;48.358;10.958;2022-11-15T09:37:07;11.73;;;7.95;;
6497;SDS011;3282;48.358;10.958;2022-11-15T09:39:52;10.00;;;5.88;;
6497;SDS011;3282;48.358;10.958;2022-11-15T09:45:33;8.23;;;5.90;;
6497;SDS011;3282;48.358;10.958;2022-11-15T09:48:53;8.82;;;5.40;;
6497;SDS011;3282;48.358;10.958;2022-11-15T09:51:52;7.70;;;5.70;;
6497;SDS011;3282;48.358;10.958;2022-11-15T10:03:46;8.07;;;5.78;;
6497;SDS011;3282;48.358;10.958;2022-11-15T10:05:59;8.88;;;5.20;;
6497;SDS011;3282;48.358;10.958;2022-11-15T10:11:34;10.43;;;6.15;;
6497;SDS011;3282;48.358;10.958;2022-11-15T10:14:08;8.90;;;5.72;;
6497;SDS011;3282;48.358;10.958;2022-11-15T10:24:23;8.57;;;5.97;;
6497;SDS011;3282;48.358;10.958;2022-11-15T10:29:22;8.65;;;5.30;;
6497;SDS011;3282;48.358;10.958;2022-11-15T10:31:52;8.98;;;6.05;;
6497;SDS011;3282;48.358;10.958;2022-11-15T10:34:20;8.60;;;5.30;;
6497;SDS011;3282;48.358;10.958;2022-11-15T10:36:55;8.02;;;5.50;;
6497;SDS011;3282;48.358;10.958;2022-11-15T10:39:27;9.07;;;5.60;;
6497;SDS011;3282;48.358;10.958;2022-11-15T10:41:54;7.45;;;5.10;;
6497;SDS011;3282;48.358;10.958;2022-11-15T10:44:22;8.05;;;5.40;;
6497;SDS011;3282;48.358;10.958;2022-11-15T10:49:24;10.20;;;5.75;;
6497;SDS011;3282;48.358;10.958;2022-11-15T10:51:59;9.65;;;5.38;;
6497;SDS011;3282;48.358;10.958;2022-11-15T10:54:41;7.65;;;4.85;;
6497;SDS011;3282;48.358;10.958;2022-11-15T10:57:12;8.85;;;5.05;;
6497;SDS011;3282;48.358;10.958;2022-11-15T10:59:42;7.63;;;4.93;;
6497;SDS011;3282;48.358;10.958;2022-11-15T11:04:59;8.55;;;4.90;;
6497;SDS011;3282;48.358;10.958;2022-11-15T11:07:27;8.02;;;4.78;;
6497;SDS011;3282;48.358;10.958;2022-11-15T11:09:56;7.45;;;4.75;;
6497;SDS011;3282;48.358;10.958;2022-11-15T11:13:15;7.75;;;4.80;;
6497;SDS011;3282;48.358;10.958;2022-11-15T11:15:56;6.78;;;4.28;;
6497;SDS011;3282;48.358;10.958;2022-11-15T11:18:52;7.97;;;4.38;;
6497;SDS011;3282;48.358;10.958;2022-11-15T11:24:16;11.10;;;4.72;;
6497;SDS011;3282;48.358;10.958;2022-11-15T11:37:49;8.75;;;5.47;;
6497;SDS011;3282;48.358;10.958;2022-11-15T11:43:12;10.57;;;5.35;;
6497;SDS011;3282;48.358;10.958;2022-11-15T11:51:42;8.73;;;5.70;;
6497;SDS011;3282;48.358;10.958;2022-11-15T11:54:22;8.55;;;5.47;;
6497;SDS011;3282;48.358;10.958;2022-11-15T11:57:06;8.25;;;5.50;;
6497;SDS011;3282;48.358;10.958;2022-11-15T11:59:55;8.73;;;5.20;;
6497;SDS011;3282;48.358;10.958;2022-11-15T12:02:41;8.13;;;4.88;;
6497;SDS011;3282;48.358;10.958;2022-11-15T12:05:18;7.00;;;5.00;;
6497;SDS011;3282;48.358;10.958;2022-11-15T12:07:54;6.32;;;4.68;;
6497;SDS011;3282;48.358;10.958;2022-11-15T12:10:30;9.35;;;4.68;;
6497;SDS011;3282;48.358;10.958;2022-11-15T12:15:38;7.80;;;4.55;;
6497;SDS011;3282;48.358;10.958;2022-11-15T12:24:02;6.78;;;4.55;;
6497;SDS011;3282;48.358;10.958;2022-11-15T12:26:38;6.95;;;4.57;;
6497;SDS011;3282;48.358;10.958;2022-11-15T12:29:15;6.75;;;4.85;;
6497;SDS011;3282;48.358;10.958;2022-11-15T12:32:01;7.05;;;4.70;;
6497;SDS011;3282;48.358;10.958;2022-11-15T12:34:36;8.55;;;4.78;;
6497;SDS011;3282;48.358;10.958;2022-11-15T12:38:08;6.53;;;4.47;;
6497;SDS011;3282;48.358;10.958;2022-11-15T12:42:40;7.00;;;4.53;;
6497;SDS011;3282;48.358;10.958;2022-11-15T12:47:53;8.38;;;5.00;;
6497;SDS011;3282;48.358;10.958;2022-11-15T12:50:52;6.30;;;4.75;;
6497;SDS011;3282;48.358;10.958;2022-11-15T12:56:08;9.82;;;5.13;;
6497;SDS011;3282;48.358;10.958;2022-11-15T12:58:45;8.90;;;4.65;;
6497;SDS011;3282;48.358;10.958;2022-11-15T13:06:58;9.20;;;4.53;;
6497;SDS011;3282;48.358;10.958;2022-11-15T13:12:03;6.80;;;4.70;;
6497;SDS011;3282;48.358;10.958;2022-11-15T13:14:45;7.38;;;4.40;;
6497;SDS011;3282;48.358;10.958;2022-11-15T13:19:47;10.02;;;4.68;;
6497;SDS011;3282;48.358;10.958;2022-11-15T13:22:14;6.35;;;4.50;;
6497;SDS011;3282;48.358;10.958;2022-11-15T13:25:02;6.53;;;4.38;;
6497;SDS011;3282;48.358;10.958;2022-11-15T13:27:29;9.75;;;4.32;;
6497;SDS011;3282;48.358;10.958;2022-11-15T13:29:57;8.65;;;4.70;;
6497;SDS011;3282;48.358;10.958;2022-11-15T13:32:39;6.47;;;4.60;;
6497;SDS011;3282;48.358;10.958;2022-11-15T13:35:06;7.30;;;4.57;;
6497;SDS011;3282;48.358;10.958;2022-11-15T13:37:33;6.65;;;4.50;;
6497;SDS011;3282;48.358;10.958;2022-11-15T13:40:20;8.27;;;4.75;;
6497;SDS011;3282;48.358;10.958;2022-11-15T13:42:50;8.85;;;5.57;;
6497;SDS011;3282;48.358;10.958;2022-11-15T13:45:17;7.45;;;5.22;;
6497;SDS011;3282;48.358;10.958;2022-11-15T13:47:44;7.15;;;5.00;;
6497;SDS011;3282;48.358;10.958;2022-11-15T13:50:17;7.27;;;4.87;;
6497;SDS011;3282;48.358;10.958;2022-11-15T13:52:48;6.88;;;4.40;;
6497;SDS011;3282;48.358;10.958;2022-11-15T13:55:17;7.25;;;4.80;;
6497;SDS011;3282;48.358;10.958;2022-11-15T13:57:47;7.07;;;4.70;;
6497;SDS011;3282;48.358;10.958;2022-11-15T14:02:56;9.52;;;4.38;;
6497;SDS011;3282;48.358;10.958;2022-11-15T14:05:31;8.18;;;4.50;;
6497;SDS011;3282;48.358;10.958;2022-11-15T14:08:05;8.25;;;4.70;;
6497;SDS011;3282;48.358;10.958;2022-11-15T14:11:04;6.80;;;4.53;;
6497;SDS011;3282;48.358;10.958;2022-11-15T14:13:35;9.48;;;5.03;;
6497;SDS011;3282;48.358;10.958;2022-11-15T14:16:18;8.57;;;4.65;;
6497;SDS011;3282;48.358;10.958;2022-11-15T14:18:48;7.82;;;5.10;;
6497;SDS011;3282;48.358;10.958;2022-11-15T14:21:18;8.68;;;4.85;;
6497;SDS011;3282;48.358;10.958;2022-11-15T14:23:46;8.63;;;5.60;;
6497;SDS011;3282;48.358;10.958;2022-11-15T14:26:29;9.27;;;6.28;;
6497;SDS011;3282;48.358;10.958;2022-11-15T14:29:21;10.60;;;6.53;;
6497;SDS011;3282;48.358;10.958;2022-11-15T14:32:05;12.13;;;6.97;;
6497;SDS011;3282;48.358;10.958;2022-11-15T14:34:38;11.35;;;7.50;;
6497;SDS011;3282;48.358;10.958;2022-11-15T14:37:08;14.10;;;8.52;;
6497;SDS011;3282;48.358;10.958;2022-11-15T14:40:01;17.77;;;9.95;;
6497;SDS011;3282;48.358;10.958;2022-11-15T14:42:29;24.58;;;15.40;;
6497;SDS011;3282;48.358;10.958;2022-11-15T14:44:55;23.02;;;15.10;;
6497;SDS011;3282;48.358;10.958;2022-11-15T14:47:22;23.63;;;13.82;;
6497;SDS011;3282;48.358;10.958;2022-11-15T14:49:48;21.35;;;13.57;;
6497;SDS011;3282;48.358;10.958;2022-11-15T14:52:27;15.98;;;10.10;;
6497;SDS011;3282;48.358;10.958;2022-11-15T14:54:58;14.05;;;9.00;;
6497;SDS011;3282;48.358;10.958;2022-11-15T14:57:28;14.75;;;9.38;;
6497;SDS011;3282;48.358;10.958;2022-11-15T14:59:55;14.00;;;8.93;;
6497;SDS011;3282;48.358;10.958;2022-11-15T15:02:37;12.23;;;8.40;;
6497;SDS011;3282;48.358;10.958;2022-11-15T15:05:12;14.75;;;8.65;;
6497;SDS011;3282;48.358;10.958;2022-11-15T15:07:40;15.57;;;9.13;;
6497;SDS011;3282;48.358;10.958;2022-11-15T15:10:07;16.42;;;9.68;;
6497;SDS011;3282;48.358;10.958;2022-11-15T15:12:54;15.50;;;9.90;;
6497;SDS011;3282;48.358;10.958;2022-11-15T15:15:25;15.63;;;9.90;;
6497;SDS011;3282;48.358;10.958;2022-11-15T15:17:55;20.00;;;10.85;;
6497;SDS011;3282;48.358;10.958;2022-11-15T15:20:22;12.52;;;8.57;;
6497;SDS011;3282;48.358;10.958;2022-11-15T15:22:48;13.98;;;9.10;;
6497;SDS011;3282;48.358;10.958;2022-11-15T15:25:31;14.77;;;9.20;;
6497;SDS011;3282;48.358;10.958;2022-11-15T15:27:59;13.85;;;9.27;;
6497;SDS011;3282;48.358;10.958;2022-11-15T15:30:27;14.88;;;8.82;;
6497;SDS011;3282;48.358;10.958;2022-11-15T15:32:55;14.73;;;8.60;;
6497;SDS011;3282;48.358;10.958;2022-11-15T15:35:22;14.05;;;8.50;;
6497;SDS011;3282;48.358;10.958;2022-11-15T15:37:56;12.77;;;8.32;;
6497;SDS011;3282;48.358;10.958;2022-11-15T15:40:23;13.63;;;8.48;;
6497;SDS011;3282;48.358;10.958;2022-11-15T15:42:50;13.57;;;8.95;;
6497;SDS011;3282;48.358;10.958;2022-11-15T15:45:17;17.15;;;9.57;;
6497;SDS011;3282;48.358;10.958;2022-11-15T15:47:45;13.27;;;8.65;;
6497;SDS011;3282;48.358;10.958;2022-11-15T15:50:32;15.38;;;8.85;;
6497;SDS011;3282;48.358;10.958;2022-11-15T15:53:00;13.02;;;9.05;;
6497;SDS011;3282;48.358;10.958;2022-11-15T15:55:28;13.82;;;8.93;;
6497;SDS011;3282;48.358;10.958;2022-11-15T15:57:55;14.60;;;9.13;;
6497;SDS011;3282;48.358;10.958;2022-11-15T16:00:22;13.77;;;8.82;;
6497;SDS011;3282;48.358;10.958;2022-11-15T16:02:51;15.82;;;9.02;;
6497;SDS011;3282;48.358;10.958;2022-11-15T16:05:18;14.38;;;9.40;;
6497;SDS011;3282;48.358;10.958;2022-11-15T16:07:45;18.88;;;12.15;;
6497;SDS011;3282;48.358;10.958;2022-11-15T16:12:43;16.77;;;10.18;;
6497;SDS011;3282;48.358;10.958;2022-11-15T16:15:09;13.52;;;9.50;;
6497;SDS011;3282;48.358;10.958;2022-11-15T16:17:42;16.85;;;10.75;;
6497;SDS011;3282;48.358;10.958;2022-11-15T16:20:19;15.30;;;9.18;;
6497;SDS011;3282;48.358;10.958;2022-11-15T16:23:06;13.45;;;8.57;;
6497;SDS011;3282;48.358;10.958;2022-11-15T16:28:24;14.07;;;8.73;;
6497;SDS011;3282;48.358;10.958;2022-11-15T16:31:07;16.08;;;9.60;;
6497;SDS011;3282;48.358;10.958;2022-11-15T16:33:35;19.55;;;12.57;;
6497;SDS011;3282;48.358;10.958;2022-11-15T16:36:03;17.92;;;12.20;;
6497;SDS011;3282;48.358;10.958;2022-11-15T16:38:31;19.38;;;11.57;;
6497;SDS011;3282;48.358;10.958;2022-11-15T16:40:58;19.52;;;11.85;;
6497;SDS011;3282;48.358;10.958;2022-11-15T16:43:25;21.00;;;11.82;;
6497;SDS011;3282;48.358;10.958;2022-11-15T16:45:51;23.17;;;12.70;;
6497;SDS011;3282;48.358;10.958;2022-11-15T16:48:20;19.73;;;12.43;;
6497;SDS011;3282;48.358;10.958;2022-11-15T16:50:54;20.10;;;11.45;;
6497;SDS011;3282;48.358;10.958;2022-11-15T16:53:22;19.42;;;12.77;;
6497;SDS011;3282;48.358;10.958;2022-11-15T16:55:50;19.25;;;11.80;;
6497;SDS011;3282;48.358;10.958;2022-11-15T16:58:16;23.92;;;13.02;;
6497;SDS011;3282;48.358;10.958;2022-11-15T17:00:43;23.42;;;13.63;;
6497;SDS011;3282;48.358;10.958;2022-11-15T17:03:10;26.77;;;15.60;;
6497;SDS011;3282;48.358;10.958;2022-11-15T17:05:37;26.77;;;16.13;;
6497;SDS011;3282;48.358;10.958;2022-11-15T17:08:03;33.22;;;19.20;;
6497;SDS011;3282;48.358;10.958;2022-11-15T17:10:30;31.92;;;17.90;;
6497;SDS011;3282;48.358;10.958;2022-11-15T17:12:56;30.55;;;18.10;;
6497;SDS011;3282;48.358;10.958;2022-11-15T17:15:23;30.35;;;19.42;;
6497;SDS011;3282;48.358;10.958;2022-11-15T17:17:51;35.42;;;22.70;;
6497;SDS011;3282;48.358;10.958;2022-11-15T17:20:19;29.30;;;19.65;;
6497;SDS011;3282;48.358;10.958;2022-11-15T17:22:47;32.95;;;21.13;;
6497;SDS011;3282;48.358;10.958;2022-11-15T17:25:14;38.88;;;24.55;;
6497;SDS011;3282;48.358;10.958;2022-11-15T17:27:41;34.17;;;21.08;;
6497;SDS011;3282;48.358;10.958;2022-11-15T17:30:08;26.98;;;17.95;;
6497;SDS011;3282;48.358;10.958;2022-11-15T17:32:37;34.00;;;20.58;;
6497;SDS011;3282;48.358;10.958;2022-11-15T17:35:04;32.30;;;20.10;;
6497;SDS011;3282;48.358;10.958;2022-11-15T17:37:40;22.38;;;13.63;;
6497;SDS011;3282;48.358;10.958;2022-11-15T17:40:07;27.35;;;16.17;;
6497;SDS011;3282;48.358;10.958;2022-11-15T17:42:34;22.42;;;13.73;;
6497;SDS011;3282;48.358;10.958;2022-11-15T17:45:00;23.48;;;14.77;;
6497;SDS011;3282;48.358;10.958;2022-11-15T17:47:34;26.55;;;17.85;;
6497;SDS011;3282;48.358;10.958;2022-11-15T17:50:01;23.05;;;15.50;;
6497;SDS011;3282;48.358;10.958;2022-11-15T17:52:27;29.63;;;16.85;;